Sapporo, Japan

5:01 PM JST on May 05, 2015 (GMT +0900)
Sapporo | | Change Station
CLOSE
Current Station
Airport
Location: Sapporo AB,
Elevation: 33 ft
Nearby Weather Stations

Elev 33 ft 43.12 °N, 141.38 °E | Updated 26 minutes ago

Mostly Cloudy
Mostly Cloudy
64 °F
Feels Like 64 °F
N
12
Wind Variable Wind from West

Today
High -- | Low -- °F
--% Chance of Precip.
Yesterday
High -- | Low -- °F
Precip. -- in
4:24 AM 6:39 PM
Full, 99% visible
Pressure 29.59 in
Visibility 6.2 miles
Clouds Few 13000 ft
Mostly Cloudy 23000 ft
Dew Point 21 °F
Humidity 19%
Rainfall 0.00 in
Snow Depth Not available.
UV 1 out of 12
Pollen Not available.
Air Quality Not available.
Flu Activity Not available.
SPECI RJCO 050735Z 28010KT 9999 FEW130 BKN230 18/M06 Q1002 RMK 2AC130 5CI230 A2961 MAX WIND 15KT

More Conditions Fewer Conditions

Pressure 29.59 in
Visibility 6.2 miles
Clouds Few 13000 ft
Mostly Cloudy 23000 ft
Dew Point 21 °F
Humidity 19%
Rainfall 0.00 in
Snow Depth Not available.
UV 1 out of 12
Pollen Not available.
Air Quality Not available.
Flu Activity Not available.
SPECI RJCO 050735Z 28010KT 9999 FEW130 BKN230 18/M06 Q1002 RMK 2AC130 5CI230 A2961 MAX WIND 15KT

More Conditions Fewer Conditions

10-Day Weather Forecast

Almanac

Astronomy

May. 05, 2015 Rise Set
Actual Time
Civil Twilight
Nautical Twilight
Astronomical Twilight
Moon
Length of Visible Light
Length of Day
Tomorrow will be .
, % of the Moon is Illuminated

Today's Extremes

Country Highs Country Lows

Community

WunderPhotos

Upload Photos

1,818,814 photos uploaded!

WunderBlogs® & News

Nearby

Air Quality

  Air Quality AQ Index Pollutant
Not available.

Snow Depth

Station Depth Elevation

Earthquake Activity

City Distance Mag. Time & Date
Minimum magnitude displayed is 2.5.

Coastal Water Temperatures

Place Temperature

Stations

Nearby Weather Stations

Station Location Temp. Windchill Dew Point Humidity Wind Precip. Elev Updated Type